Terminal Aerodrome Forecast
Issued by NWS

Home | Current Version | Previous Version | Text Only | Print | Product List | Glossary On
Versions: 1 2 3 4 5 6 7 8 9 10 11 12 13 14 15 16 17
860
FTUS43 KTOP 111733
TAFFOE
TAF
KFOE 111733Z 1118/1218 11007KT P6SM SCT150
     FM112000 17006KT P6SM SCT150
     FM120500 24006KT P6SM FEW120
     FM120900 33011G20KT P6SM SCT020=

USA.gov is the U.S. government's official web portal to all federal, state and local government web resources and services.